sensor_id;sensor_type;location;lat;lon;timestamp;P1;durP1;ratioP1;P2;durP2;ratioP2
8139;SDS011;4111;50.972;7.072;2023-08-06T00:00:11;2.83;;;2.63;;
8139;SDS011;4111;50.972;7.072;2023-08-06T00:02:38;4.40;;;2.50;;
8139;SDS011;4111;50.972;7.072;2023-08-06T00:05:05;3.00;;;2.70;;
8139;SDS011;4111;50.972;7.072;2023-08-06T00:07:31;2.90;;;2.40;;
8139;SDS011;4111;50.972;7.072;2023-08-06T00:09:58;6.03;;;2.73;;
8139;SDS011;4111;50.972;7.072;2023-08-06T00:12:24;4.37;;;2.93;;
8139;SDS011;4111;50.972;7.072;2023-08-06T00:14:51;3.13;;;2.83;;
8139;SDS011;4111;50.972;7.072;2023-08-06T00:17:18;6.93;;;2.43;;
8139;SDS011;4111;50.972;7.072;2023-08-06T00:19:45;2.90;;;2.70;;
8139;SDS011;4111;50.972;7.072;2023-08-06T00:22:11;3.70;;;2.63;;
8139;SDS011;4111;50.972;7.072;2023-08-06T00:24:38;6.93;;;3.00;;
8139;SDS011;4111;50.972;7.072;2023-08-06T00:27:04;3.23;;;2.90;;
8139;SDS011;4111;50.972;7.072;2023-08-06T00:29:31;5.00;;;2.70;;
8139;SDS011;4111;50.972;7.072;2023-08-06T00:31:57;4.50;;;3.07;;
8139;SDS011;4111;50.972;7.072;2023-08-06T00:34:23;5.07;;;2.70;;
8139;SDS011;4111;50.972;7.072;2023-08-06T00:36:52;4.60;;;2.33;;
8139;SDS011;4111;50.972;7.072;2023-08-06T00:39:20;3.00;;;2.80;;
8139;SDS011;4111;50.972;7.072;2023-08-06T00:41:46;2.67;;;2.43;;
8139;SDS011;4111;50.972;7.072;2023-08-06T00:44:12;6.10;;;3.03;;
8139;SDS011;4111;50.972;7.072;2023-08-06T00:46:39;4.37;;;2.97;;
8139;SDS011;4111;50.972;7.072;2023-08-06T00:49:06;2.80;;;2.60;;
8139;SDS011;4111;50.972;7.072;2023-08-06T00:51:32;4.80;;;2.80;;
8139;SDS011;4111;50.972;7.072;2023-08-06T00:54:00;2.80;;;2.50;;
8139;SDS011;4111;50.972;7.072;2023-08-06T00:56:28;4.43;;;2.70;;
8139;SDS011;4111;50.972;7.072;2023-08-06T00:58:54;4.33;;;2.73;;
8139;SDS011;4111;50.972;7.072;2023-08-06T01:01:21;4.77;;;4.23;;
8139;SDS011;4111;50.972;7.072;2023-08-06T01:03:47;6.00;;;2.80;;
8139;SDS011;4111;50.972;7.072;2023-08-06T01:06:14;4.00;;;3.30;;
8139;SDS011;4111;50.972;7.072;2023-08-06T01:08:50;3.17;;;2.60;;
8139;SDS011;4111;50.972;7.072;2023-08-06T01:14:22;3.73;;;3.10;;
8139;SDS011;4111;50.972;7.072;2023-08-06T01:16:54;4.03;;;2.90;;
8139;SDS011;4111;50.972;7.072;2023-08-06T01:19:21;5.00;;;3.00;;
8139;SDS011;4111;50.972;7.072;2023-08-06T01:21:47;5.00;;;3.30;;
8139;SDS011;4111;50.972;7.072;2023-08-06T01:24:13;6.10;;;3.13;;
8139;SDS011;4111;50.972;7.072;2023-08-06T01:31:39;3.00;;;2.80;;
8139;SDS011;4111;50.972;7.072;2023-08-06T01:34:09;2.97;;;2.67;;
8139;SDS011;4111;50.972;7.072;2023-08-06T01:36:39;4.50;;;3.00;;
8139;SDS011;4111;50.972;7.072;2023-08-06T01:39:06;4.83;;;2.83;;
8139;SDS011;4111;50.972;7.072;2023-08-06T01:41:33;3.57;;;3.03;;
8139;SDS011;4111;50.972;7.072;2023-08-06T01:43:59;3.40;;;3.10;;
8139;SDS011;4111;50.972;7.072;2023-08-06T01:46:26;9.40;;;2.80;;
8139;SDS011;4111;50.972;7.072;2023-08-06T01:48:52;3.30;;;2.87;;
8139;SDS011;4111;50.972;7.072;2023-08-06T01:51:19;3.10;;;2.80;;
8139;SDS011;4111;50.972;7.072;2023-08-06T01:53:45;4.97;;;2.90;;
8139;SDS011;4111;50.972;7.072;2023-08-06T01:56:18;4.07;;;3.00;;
8139;SDS011;4111;50.972;7.072;2023-08-06T01:58:45;5.83;;;3.13;;
8139;SDS011;4111;50.972;7.072;2023-08-06T02:01:11;3.13;;;2.93;;
8139;SDS011;4111;50.972;7.072;2023-08-06T02:03:37;3.23;;;3.00;;
8139;SDS011;4111;50.972;7.072;2023-08-06T02:06:04;3.33;;;2.93;;
8139;SDS011;4111;50.972;7.072;2023-08-06T02:08:30;6.30;;;2.80;;
8139;SDS011;4111;50.972;7.072;2023-08-06T02:10:57;3.33;;;2.60;;
8139;SDS011;4111;50.972;7.072;2023-08-06T02:13:24;3.93;;;2.67;;
8139;SDS011;4111;50.972;7.072;2023-08-06T02:15:51;4.47;;;3.10;;
8139;SDS011;4111;50.972;7.072;2023-08-06T02:18:17;4.37;;;2.87;;
8139;SDS011;4111;50.972;7.072;2023-08-06T02:20:44;3.30;;;2.80;;
8139;SDS011;4111;50.972;7.072;2023-08-06T02:23:22;3.07;;;2.70;;
8139;SDS011;4111;50.972;7.072;2023-08-06T02:25:59;3.37;;;2.70;;
8139;SDS011;4111;50.972;7.072;2023-08-06T02:28:26;3.60;;;2.70;;
8139;SDS011;4111;50.972;7.072;2023-08-06T02:30:53;3.53;;;2.83;;
8139;SDS011;4111;50.972;7.072;2023-08-06T02:33:19;3.10;;;2.80;;
8139;SDS011;4111;50.972;7.072;2023-08-06T02:35:46;5.07;;;3.07;;
8139;SDS011;4111;50.972;7.072;2023-08-06T02:38:12;2.80;;;2.60;;
8139;SDS011;4111;50.972;7.072;2023-08-06T02:40:45;4.07;;;3.03;;
8139;SDS011;4111;50.972;7.072;2023-08-06T02:43:12;3.83;;;2.63;;
8139;SDS011;4111;50.972;7.072;2023-08-06T02:45:39;4.07;;;2.80;;
8139;SDS011;4111;50.972;7.072;2023-08-06T02:48:05;5.73;;;2.53;;
8139;SDS011;4111;50.972;7.072;2023-08-06T02:50:39;3.37;;;2.70;;
8139;SDS011;4111;50.972;7.072;2023-08-06T02:53:06;3.13;;;2.50;;
8139;SDS011;4111;50.972;7.072;2023-08-06T02:55:34;2.77;;;2.40;;
8139;SDS011;4111;50.972;7.072;2023-08-06T02:58:01;3.77;;;2.70;;
8139;SDS011;4111;50.972;7.072;2023-08-06T03:00:27;2.73;;;2.53;;
8139;SDS011;4111;50.972;7.072;2023-08-06T03:02:54;4.60;;;2.73;;
8139;SDS011;4111;50.972;7.072;2023-08-06T03:05:21;5.43;;;3.00;;
8139;SDS011;4111;50.972;7.072;2023-08-06T03:07:47;7.80;;;2.90;;
8139;SDS011;4111;50.972;7.072;2023-08-06T03:10:14;5.17;;;3.00;;
8139;SDS011;4111;50.972;7.072;2023-08-06T03:12:40;3.63;;;3.00;;
8139;SDS011;4111;50.972;7.072;2023-08-06T03:15:07;3.33;;;2.90;;
8139;SDS011;4111;50.972;7.072;2023-08-06T03:17:34;4.90;;;3.00;;
8139;SDS011;4111;50.972;7.072;2023-08-06T03:20:00;4.93;;;3.10;;
8139;SDS011;4111;50.972;7.072;2023-08-06T03:22:27;6.23;;;2.93;;
8139;SDS011;4111;50.972;7.072;2023-08-06T03:24:53;2.87;;;2.67;;
8139;SDS011;4111;50.972;7.072;2023-08-06T03:27:19;7.20;;;3.13;;
8139;SDS011;4111;50.972;7.072;2023-08-06T03:29:48;3.47;;;2.77;;
8139;SDS011;4111;50.972;7.072;2023-08-06T03:32:15;3.50;;;2.73;;
8139;SDS011;4111;50.972;7.072;2023-08-06T03:34:41;3.23;;;3.00;;
8139;SDS011;4111;50.972;7.072;2023-08-06T03:37:08;4.13;;;3.00;;
8139;SDS011;4111;50.972;7.072;2023-08-06T03:39:34;5.00;;;2.80;;
8139;SDS011;4111;50.972;7.072;2023-08-06T03:42:01;2.97;;;2.77;;
8139;SDS011;4111;50.972;7.072;2023-08-06T03:44:27;4.67;;;2.80;;
8139;SDS011;4111;50.972;7.072;2023-08-06T03:46:54;4.10;;;3.23;;
8139;SDS011;4111;50.972;7.072;2023-08-06T03:49:24;4.97;;;2.70;;
8139;SDS011;4111;50.972;7.072;2023-08-06T03:51:50;6.50;;;3.00;;
8139;SDS011;4111;50.972;7.072;2023-08-06T03:54:17;4.27;;;2.97;;
8139;SDS011;4111;50.972;7.072;2023-08-06T03:56:44;5.93;;;3.10;;
8139;SDS011;4111;50.972;7.072;2023-08-06T03:59:10;6.27;;;3.07;;
8139;SDS011;4111;50.972;7.072;2023-08-06T04:01:37;8.80;;;2.93;;
8139;SDS011;4111;50.972;7.072;2023-08-06T04:04:03;4.60;;;3.00;;
8139;SDS011;4111;50.972;7.072;2023-08-06T04:06:29;4.60;;;2.80;;
8139;SDS011;4111;50.972;7.072;2023-08-06T04:08:56;4.70;;;3.13;;
8139;SDS011;4111;50.972;7.072;2023-08-06T04:11:22;5.60;;;3.07;;
8139;SDS011;4111;50.972;7.072;2023-08-06T04:13:49;2.80;;;2.60;;
8139;SDS011;4111;50.972;7.072;2023-08-06T04:16:15;2.87;;;2.63;;
8139;SDS011;4111;50.972;7.072;2023-08-06T04:18:42;5.17;;;3.13;;
8139;SDS011;4111;50.972;7.072;2023-08-06T04:21:08;3.70;;;2.93;;
8139;SDS011;4111;50.972;7.072;2023-08-06T04:23:34;3.50;;;2.73;;
8139;SDS011;4111;50.972;7.072;2023-08-06T04:26:01;4.53;;;2.90;;
8139;SDS011;4111;50.972;7.072;2023-08-06T04:28:27;3.37;;;2.90;;
8139;SDS011;4111;50.972;7.072;2023-08-06T04:30:54;11.23;;;3.60;;
8139;SDS011;4111;50.972;7.072;2023-08-06T04:33:20;3.10;;;2.77;;
8139;SDS011;4111;50.972;7.072;2023-08-06T04:35:47;4.80;;;2.77;;
8139;SDS011;4111;50.972;7.072;2023-08-06T04:38:13;3.73;;;2.80;;
8139;SDS011;4111;50.972;7.072;2023-08-06T04:40:40;3.63;;;2.90;;
8139;SDS011;4111;50.972;7.072;2023-08-06T04:43:07;6.00;;;3.20;;
8139;SDS011;4111;50.972;7.072;2023-08-06T04:45:33;5.30;;;2.83;;
8139;SDS011;4111;50.972;7.072;2023-08-06T04:47:59;4.67;;;2.80;;
8139;SDS011;4111;50.972;7.072;2023-08-06T04:50:26;3.93;;;2.80;;
8139;SDS011;4111;50.972;7.072;2023-08-06T04:52:52;2.83;;;2.63;;
8139;SDS011;4111;50.972;7.072;2023-08-06T04:55:19;4.13;;;2.80;;
8139;SDS011;4111;50.972;7.072;2023-08-06T04:57:45;4.73;;;2.90;;
8139;SDS011;4111;50.972;7.072;2023-08-06T05:00:12;4.47;;;3.00;;
8139;SDS011;4111;50.972;7.072;2023-08-06T05:02:38;4.47;;;2.87;;
8139;SDS011;4111;50.972;7.072;2023-08-06T05:05:07;5.93;;;3.00;;
8139;SDS011;4111;50.972;7.072;2023-08-06T05:07:34;4.00;;;2.70;;
8139;SDS011;4111;50.972;7.072;2023-08-06T05:10:01;4.27;;;3.00;;
8139;SDS011;4111;50.972;7.072;2023-08-06T05:12:29;6.73;;;3.17;;
8139;SDS011;4111;50.972;7.072;2023-08-06T05:14:55;5.20;;;2.70;;
8139;SDS011;4111;50.972;7.072;2023-08-06T05:17:22;4.63;;;3.03;;
8139;SDS011;4111;50.972;7.072;2023-08-06T05:19:49;3.97;;;2.73;;
8139;SDS011;4111;50.972;7.072;2023-08-06T05:22:16;3.70;;;2.93;;
8139;SDS011;4111;50.972;7.072;2023-08-06T05:24:42;7.77;;;3.00;;
8139;SDS011;4111;50.972;7.072;2023-08-06T05:27:08;5.43;;;3.80;;
8139;SDS011;4111;50.972;7.072;2023-08-06T05:29:35;5.83;;;3.53;;
8139;SDS011;4111;50.972;7.072;2023-08-06T05:32:01;3.20;;;3.00;;
8139;SDS011;4111;50.972;7.072;2023-08-06T05:34:27;3.27;;;2.97;;
8139;SDS011;4111;50.972;7.072;2023-08-06T05:36:54;4.70;;;2.77;;
8139;SDS011;4111;50.972;7.072;2023-08-06T05:39:20;3.83;;;2.80;;
8139;SDS011;4111;50.972;7.072;2023-08-06T05:41:47;5.63;;;2.83;;
8139;SDS011;4111;50.972;7.072;2023-08-06T05:44:13;3.13;;;2.63;;
8139;SDS011;4111;50.972;7.072;2023-08-06T05:46:43;3.13;;;2.80;;
8139;SDS011;4111;50.972;7.072;2023-08-06T05:49:10;3.63;;;2.97;;
8139;SDS011;4111;50.972;7.072;2023-08-06T05:51:39;6.93;;;2.87;;
8139;SDS011;4111;50.972;7.072;2023-08-06T05:54:05;5.23;;;3.13;;
8139;SDS011;4111;50.972;7.072;2023-08-06T05:56:32;5.73;;;3.00;;
8139;SDS011;4111;50.972;7.072;2023-08-06T05:58:58;3.93;;;2.93;;
8139;SDS011;4111;50.972;7.072;2023-08-06T06:01:24;10.13;;;3.13;;
8139;SDS011;4111;50.972;7.072;2023-08-06T06:03:51;4.67;;;3.03;;
8139;SDS011;4111;50.972;7.072;2023-08-06T06:06:18;3.47;;;2.70;;
8139;SDS011;4111;50.972;7.072;2023-08-06T06:08:46;4.23;;;2.83;;
8139;SDS011;4111;50.972;7.072;2023-08-06T06:11:12;3.43;;;2.50;;
8139;SDS011;4111;50.972;7.072;2023-08-06T06:13:38;5.27;;;4.27;;
8139;SDS011;4111;50.972;7.072;2023-08-06T06:16:05;3.73;;;2.77;;
8139;SDS011;4111;50.972;7.072;2023-08-06T06:18:31;5.77;;;3.17;;
8139;SDS011;4111;50.972;7.072;2023-08-06T06:20:58;2.80;;;2.50;;
8139;SDS011;4111;50.972;7.072;2023-08-06T06:23:24;2.50;;;2.30;;
8139;SDS011;4111;50.972;7.072;2023-08-06T06:25:51;2.90;;;2.10;;
8139;SDS011;4111;50.972;7.072;2023-08-06T06:28:21;3.10;;;2.10;;
8139;SDS011;4111;50.972;7.072;2023-08-06T06:30:48;2.43;;;2.23;;
8139;SDS011;4111;50.972;7.072;2023-08-06T06:33:14;5.50;;;2.57;;
8139;SDS011;4111;50.972;7.072;2023-08-06T06:35:41;3.47;;;2.33;;
8139;SDS011;4111;50.972;7.072;2023-08-06T06:38:07;4.30;;;2.40;;
8139;SDS011;4111;50.972;7.072;2023-08-06T06:40:33;2.27;;;2.07;;
8139;SDS011;4111;50.972;7.072;2023-08-06T06:43:00;2.57;;;2.10;;
8139;SDS011;4111;50.972;7.072;2023-08-06T06:45:26;2.93;;;2.30;;
8139;SDS011;4111;50.972;7.072;2023-08-06T06:47:53;2.50;;;2.30;;
8139;SDS011;4111;50.972;7.072;2023-08-06T06:50:19;6.70;;;3.57;;
8139;SDS011;4111;50.972;7.072;2023-08-06T06:52:45;2.43;;;2.33;;
8139;SDS011;4111;50.972;7.072;2023-08-06T06:55:12;2.67;;;2.33;;
8139;SDS011;4111;50.972;7.072;2023-08-06T06:57:38;3.03;;;2.30;;
8139;SDS011;4111;50.972;7.072;2023-08-06T07:00:05;4.37;;;2.60;;
8139;SDS011;4111;50.972;7.072;2023-08-06T07:02:32;3.70;;;2.50;;
8139;SDS011;4111;50.972;7.072;2023-08-06T07:04:58;5.17;;;2.30;;
8139;SDS011;4111;50.972;7.072;2023-08-06T07:07:25;1.90;;;1.70;;
8139;SDS011;4111;50.972;7.072;2023-08-06T07:09:51;1.93;;;1.83;;
8139;SDS011;4111;50.972;7.072;2023-08-06T07:12:18;2.07;;;1.57;;
8139;SDS011;4111;50.972;7.072;2023-08-06T07:14:44;1.77;;;1.53;;
8139;SDS011;4111;50.972;7.072;2023-08-06T07:17:10;1.97;;;1.40;;
8139;SDS011;4111;50.972;7.072;2023-08-06T07:19:37;2.73;;;1.40;;
8139;SDS011;4111;50.972;7.072;2023-08-06T07:22:03;1.33;;;1.20;;
8139;SDS011;4111;50.972;7.072;2023-08-06T07:24:30;1.63;;;1.53;;
8139;SDS011;4111;50.972;7.072;2023-08-06T07:26:56;1.70;;;1.60;;
8139;SDS011;4111;50.972;7.072;2023-08-06T07:29:23;1.83;;;1.63;;
8139;SDS011;4111;50.972;7.072;2023-08-06T07:31:49;1.43;;;1.33;;
8139;SDS011;4111;50.972;7.072;2023-08-06T07:34:16;1.70;;;1.60;;
8139;SDS011;4111;50.972;7.072;2023-08-06T07:36:46;1.43;;;1.33;;
8139;SDS011;4111;50.972;7.072;2023-08-06T07:39:12;1.60;;;1.50;;
8139;SDS011;4111;50.972;7.072;2023-08-06T07:41:39;4.40;;;1.67;;
8139;SDS011;4111;50.972;7.072;2023-08-06T07:44:07;2.77;;;1.60;;
8139;SDS011;4111;50.972;7.072;2023-08-06T07:46:33;2.23;;;1.70;;
8139;SDS011;4111;50.972;7.072;2023-08-06T07:49:00;1.30;;;1.30;;
8139;SDS011;4111;50.972;7.072;2023-08-06T07:51:26;2.33;;;1.60;;
8139;SDS011;4111;50.972;7.072;2023-08-06T07:53:53;1.30;;;1.20;;
8139;SDS011;4111;50.972;7.072;2023-08-06T07:56:19;2.23;;;1.63;;
8139;SDS011;4111;50.972;7.072;2023-08-06T07:58:46;3.27;;;2.63;;
8139;SDS011;4111;50.972;7.072;2023-08-06T08:01:12;6.47;;;6.07;;
8139;SDS011;4111;50.972;7.072;2023-08-06T08:03:39;6.50;;;5.90;;
8139;SDS011;4111;50.972;7.072;2023-08-06T08:06:05;2.60;;;2.40;;
8139;SDS011;4111;50.972;7.072;2023-08-06T08:08:32;2.53;;;2.40;;
8139;SDS011;4111;50.972;7.072;2023-08-06T08:10:58;1.70;;;1.60;;
8139;SDS011;4111;50.972;7.072;2023-08-06T08:13:26;4.07;;;3.73;;
8139;SDS011;4111;50.972;7.072;2023-08-06T08:15:56;3.17;;;2.97;;
8139;SDS011;4111;50.972;7.072;2023-08-06T08:18:24;10.47;;;7.07;;
8139;SDS011;4111;50.972;7.072;2023-08-06T08:20:51;6.90;;;6.30;;
8139;SDS011;4111;50.972;7.072;2023-08-06T08:23:18;3.67;;;3.37;;
8139;SDS011;4111;50.972;7.072;2023-08-06T08:25:44;2.30;;;2.10;;
8139;SDS011;4111;50.972;7.072;2023-08-06T08:28:10;2.43;;;2.23;;
8139;SDS011;4111;50.972;7.072;2023-08-06T08:30:37;2.93;;;2.00;;
8139;SDS011;4111;50.972;7.072;2023-08-06T08:33:03;2.40;;;1.60;;
8139;SDS011;4111;50.972;7.072;2023-08-06T08:35:30;2.20;;;2.00;;
8139;SDS011;4111;50.972;7.072;2023-08-06T08:37:56;3.30;;;3.10;;
8139;SDS011;4111;50.972;7.072;2023-08-06T08:40:22;3.83;;;3.47;;
8139;SDS011;4111;50.972;7.072;2023-08-06T08:42:58;2.77;;;2.57;;
8139;SDS011;4111;50.972;7.072;2023-08-06T08:45:26;3.23;;;2.70;;
8139;SDS011;4111;50.972;7.072;2023-08-06T08:47:54;2.63;;;2.00;;
8139;SDS011;4111;50.972;7.072;2023-08-06T08:50:21;2.13;;;1.30;;
8139;SDS011;4111;50.972;7.072;2023-08-06T08:52:48;1.70;;;1.60;;
8139;SDS011;4111;50.972;7.072;2023-08-06T08:55:16;1.20;;;1.20;;
8139;SDS011;4111;50.972;7.072;2023-08-06T08:57:44;1.60;;;1.50;;
8139;SDS011;4111;50.972;7.072;2023-08-06T09:00:10;1.60;;;1.50;;
8139;SDS011;4111;50.972;7.072;2023-08-06T09:02:37;2.00;;;1.70;;
8139;SDS011;4111;50.972;7.072;2023-08-06T09:05:05;7.63;;;6.87;;
8139;SDS011;4111;50.972;7.072;2023-08-06T09:07:32;2.73;;;1.93;;
8139;SDS011;4111;50.972;7.072;2023-08-06T09:10:04;1.83;;;1.73;;
8139;SDS011;4111;50.972;7.072;2023-08-06T09:12:33;1.50;;;1.50;;
8139;SDS011;4111;50.972;7.072;2023-08-06T09:14:59;2.30;;;1.30;;
8139;SDS011;4111;50.972;7.072;2023-08-06T09:17:26;2.00;;;1.40;;
8139;SDS011;4111;50.972;7.072;2023-08-06T09:19:54;2.43;;;1.53;;
8139;SDS011;4111;50.972;7.072;2023-08-06T09:22:20;1.53;;;1.43;;
8139;SDS011;4111;50.972;7.072;2023-08-06T09:24:47;1.60;;;1.50;;
8139;SDS011;4111;50.972;7.072;2023-08-06T09:27:13;1.77;;;1.67;;
8139;SDS011;4111;50.972;7.072;2023-08-06T09:29:41;3.40;;;3.10;;
8139;SDS011;4111;50.972;7.072;2023-08-06T09:32:09;2.30;;;2.20;;
8139;SDS011;4111;50.972;7.072;2023-08-06T09:34:35;3.53;;;2.00;;
8139;SDS011;4111;50.972;7.072;2023-08-06T09:37:06;2.60;;;2.10;;
8139;SDS011;4111;50.972;7.072;2023-08-06T09:39:35;3.40;;;3.10;;
8139;SDS011;4111;50.972;7.072;2023-08-06T09:42:02;3.00;;;2.80;;
8139;SDS011;4111;50.972;7.072;2023-08-06T09:44:31;3.67;;;3.37;;
8139;SDS011;4111;50.972;7.072;2023-08-06T09:46:59;3.97;;;3.70;;
8139;SDS011;4111;50.972;7.072;2023-08-06T09:49:27;3.63;;;3.43;;
8139;SDS011;4111;50.972;7.072;2023-08-06T09:52:06;3.80;;;3.57;;
8139;SDS011;4111;50.972;7.072;2023-08-06T09:54:36;4.73;;;4.00;;
8139;SDS011;4111;50.972;7.072;2023-08-06T09:57:03;4.57;;;4.17;;
8139;SDS011;4111;50.972;7.072;2023-08-06T09:59:31;4.77;;;4.40;;
8139;SDS011;4111;50.972;7.072;2023-08-06T10:01:58;4.90;;;4.53;;
8139;SDS011;4111;50.972;7.072;2023-08-06T10:04:25;5.20;;;4.70;;
8139;SDS011;4111;50.972;7.072;2023-08-06T10:07:03;5.00;;;4.60;;
8139;SDS011;4111;50.972;7.072;2023-08-06T10:09:30;5.20;;;4.80;;
8139;SDS011;4111;50.972;7.072;2023-08-06T10:11:57;5.27;;;4.87;;
8139;SDS011;4111;50.972;7.072;2023-08-06T10:14:27;6.10;;;5.40;;
8139;SDS011;4111;50.972;7.072;2023-08-06T10:16:57;5.40;;;4.90;;
8139;SDS011;4111;50.972;7.072;2023-08-06T10:19:24;5.70;;;5.20;;
8139;SDS011;4111;50.972;7.072;2023-08-06T10:22:11;5.53;;;5.10;;
8139;SDS011;4111;50.972;7.072;2023-08-06T10:24:55;5.10;;;4.70;;
8139;SDS011;4111;50.972;7.072;2023-08-06T10:27:33;5.33;;;3.63;;
8139;SDS011;4111;50.972;7.072;2023-08-06T10:30:20;5.73;;;2.10;;
8139;SDS011;4111;50.972;7.072;2023-08-06T10:32:49;3.00;;;1.47;;
8139;SDS011;4111;50.972;7.072;2023-08-06T10:35:28;2.67;;;2.40;;
8139;SDS011;4111;50.972;7.072;2023-08-06T10:38:03;1.40;;;1.30;;
8139;SDS011;4111;50.972;7.072;2023-08-06T10:40:31;1.23;;;1.20;;
8139;SDS011;4111;50.972;7.072;2023-08-06T10:42:59;1.20;;;1.10;;
8139;SDS011;4111;50.972;7.072;2023-08-06T10:45:29;1.20;;;0.97;;
8139;SDS011;4111;50.972;7.072;2023-08-06T10:47:56;1.13;;;0.97;;
8139;SDS011;4111;50.972;7.072;2023-08-06T10:50:24;1.43;;;1.33;;
8139;SDS011;4111;50.972;7.072;2023-08-06T10:52:51;1.27;;;1.27;;
8139;SDS011;4111;50.972;7.072;2023-08-06T10:57:51;1.30;;;1.30;;
8139;SDS011;4111;50.972;7.072;2023-08-06T11:00:18;1.10;;;1.10;;
8139;SDS011;4111;50.972;7.072;2023-08-06T11:02:46;1.20;;;1.10;;
8139;SDS011;4111;50.972;7.072;2023-08-06T11:05:14;1.33;;;1.23;;
8139;SDS011;4111;50.972;7.072;2023-08-06T11:07:40;3.40;;;1.40;;
8139;SDS011;4111;50.972;7.072;2023-08-06T11:10:08;1.20;;;1.20;;
8139;SDS011;4111;50.972;7.072;2023-08-06T11:12:36;1.70;;;1.60;;
8139;SDS011;4111;50.972;7.072;2023-08-06T11:15:03;1.93;;;1.50;;
8139;SDS011;4111;50.972;7.072;2023-08-06T11:17:30;2.47;;;1.67;;
8139;SDS011;4111;50.972;7.072;2023-08-06T11:20:02;2.43;;;2.13;;
8139;SDS011;4111;50.972;7.072;2023-08-06T11:22:30;2.10;;;1.90;;
8139;SDS011;4111;50.972;7.072;2023-08-06T11:24:56;2.10;;;1.90;;
8139;SDS011;4111;50.972;7.072;2023-08-06T11:27:25;3.10;;;2.20;;
8139;SDS011;4111;50.972;7.072;2023-08-06T11:29:52;3.43;;;2.30;;
8139;SDS011;4111;50.972;7.072;2023-08-06T11:32:19;4.23;;;2.30;;
8139;SDS011;4111;50.972;7.072;2023-08-06T11:34:45;3.33;;;2.70;;
8139;SDS011;4111;50.972;7.072;2023-08-06T11:37:12;3.63;;;2.23;;
8139;SDS011;4111;50.972;7.072;2023-08-06T11:39:38;4.83;;;2.13;;
8139;SDS011;4111;50.972;7.072;2023-08-06T11:42:10;5.03;;;2.37;;
8139;SDS011;4111;50.972;7.072;2023-08-06T11:44:38;4.97;;;2.57;;
8139;SDS011;4111;50.972;7.072;2023-08-06T11:47:15;3.17;;;2.27;;
8139;SDS011;4111;50.972;7.072;2023-08-06T11:49:44;4.73;;;2.47;;
8139;SDS011;4111;50.972;7.072;2023-08-06T11:54:43;4.30;;;2.97;;
8139;SDS011;4111;50.972;7.072;2023-08-06T11:57:10;5.70;;;3.10;;
8139;SDS011;4111;50.972;7.072;2023-08-06T11:59:37;5.13;;;3.40;;
8139;SDS011;4111;50.972;7.072;2023-08-06T12:02:05;6.93;;;3.27;;
8139;SDS011;4111;50.972;7.072;2023-08-06T12:07:29;4.70;;;2.77;;
8139;SDS011;4111;50.972;7.072;2023-08-06T12:09:57;7.40;;;3.00;;
8139;SDS011;4111;50.972;7.072;2023-08-06T12:12:24;7.43;;;2.83;;
8139;SDS011;4111;50.972;7.072;2023-08-06T12:14:51;7.50;;;3.10;;
8139;SDS011;4111;50.972;7.072;2023-08-06T12:17:17;9.70;;;2.80;;
8139;SDS011;4111;50.972;7.072;2023-08-06T12:19:44;6.80;;;2.97;;
8139;SDS011;4111;50.972;7.072;2023-08-06T12:22:12;8.10;;;3.40;;
8139;SDS011;4111;50.972;7.072;2023-08-06T12:24:40;4.10;;;2.70;;
8139;SDS011;4111;50.972;7.072;2023-08-06T12:27:08;6.13;;;2.57;;
8139;SDS011;4111;50.972;7.072;2023-08-06T12:29:34;7.43;;;2.63;;
8139;SDS011;4111;50.972;7.072;2023-08-06T12:32:03;5.77;;;3.00;;
8139;SDS011;4111;50.972;7.072;2023-08-06T12:34:30;4.53;;;2.57;;
8139;SDS011;4111;50.972;7.072;2023-08-06T12:37:12;4.07;;;2.37;;
8139;SDS011;4111;50.972;7.072;2023-08-06T12:39:39;3.80;;;2.30;;
8139;SDS011;4111;50.972;7.072;2023-08-06T12:42:05;2.90;;;2.33;;
8139;SDS011;4111;50.972;7.072;2023-08-06T12:44:35;3.60;;;2.30;;
8139;SDS011;4111;50.972;7.072;2023-08-06T12:47:02;4.80;;;2.10;;
8139;SDS011;4111;50.972;7.072;2023-08-06T12:49:28;4.50;;;2.10;;
8139;SDS011;4111;50.972;7.072;2023-08-06T12:51:57;4.83;;;2.13;;
8139;SDS011;4111;50.972;7.072;2023-08-06T12:54:25;4.17;;;2.17;;
8139;SDS011;4111;50.972;7.072;2023-08-06T12:56:52;2.73;;;1.80;;
8139;SDS011;4111;50.972;7.072;2023-08-06T12:59:19;4.60;;;2.20;;
8139;SDS011;4111;50.972;7.072;2023-08-06T13:01:46;4.33;;;2.27;;
8139;SDS011;4111;50.972;7.072;2023-08-06T13:04:14;4.43;;;2.27;;
8139;SDS011;4111;50.972;7.072;2023-08-06T13:06:48;3.17;;;1.93;;
8139;SDS011;4111;50.972;7.072;2023-08-06T13:09:15;3.70;;;2.13;;
8139;SDS011;4111;50.972;7.072;2023-08-06T13:11:42;6.07;;;2.20;;
8139;SDS011;4111;50.972;7.072;2023-08-06T13:14:12;5.70;;;2.50;;
8139;SDS011;4111;50.972;7.072;2023-08-06T13:16:40;3.50;;;2.07;;
8139;SDS011;4111;50.972;7.072;2023-08-06T13:19:08;4.23;;;2.50;;
8139;SDS011;4111;50.972;7.072;2023-08-06T13:21:57;3.37;;;2.47;;
8139;SDS011;4111;50.972;7.072;2023-08-06T13:24:29;3.07;;;2.40;;
8139;SDS011;4111;50.972;7.072;2023-08-06T13:26:56;3.43;;;2.37;;
8139;SDS011;4111;50.972;7.072;2023-08-06T13:29:22;4.13;;;3.07;;
8139;SDS011;4111;50.972;7.072;2023-08-06T13:31:49;2.73;;;2.20;;
8139;SDS011;4111;50.972;7.072;2023-08-06T13:34:15;3.23;;;2.40;;
8139;SDS011;4111;50.972;7.072;2023-08-06T13:36:42;3.83;;;2.37;;
8139;SDS011;4111;50.972;7.072;2023-08-06T13:39:09;3.10;;;2.53;;
8139;SDS011;4111;50.972;7.072;2023-08-06T13:41:37;3.87;;;2.60;;
8139;SDS011;4111;50.972;7.072;2023-08-06T13:44:04;4.57;;;2.57;;
8139;SDS011;4111;50.972;7.072;2023-08-06T13:46:31;2.47;;;2.13;;
8139;SDS011;4111;50.972;7.072;2023-08-06T13:48:57;3.53;;;2.40;;
8139;SDS011;4111;50.972;7.072;2023-08-06T13:51:24;5.23;;;2.30;;
8139;SDS011;4111;50.972;7.072;2023-08-06T13:53:50;3.73;;;2.63;;
8139;SDS011;4111;50.972;7.072;2023-08-06T13:56:18;2.47;;;2.13;;
8139;SDS011;4111;50.972;7.072;2023-08-06T13:58:44;3.60;;;2.50;;
8139;SDS011;4111;50.972;7.072;2023-08-06T14:01:11;2.60;;;2.40;;
8139;SDS011;4111;50.972;7.072;2023-08-06T14:03:39;4.77;;;2.27;;
8139;SDS011;4111;50.972;7.072;2023-08-06T14:06:06;3.57;;;2.33;;
8139;SDS011;4111;50.972;7.072;2023-08-06T14:08:32;2.60;;;2.30;;
8139;SDS011;4111;50.972;7.072;2023-08-06T14:10:59;4.60;;;2.63;;
8139;SDS011;4111;50.972;7.072;2023-08-06T14:13:25;2.67;;;2.20;;
8139;SDS011;4111;50.972;7.072;2023-08-06T14:15:51;3.97;;;2.53;;
8139;SDS011;4111;50.972;7.072;2023-08-06T14:18:18;4.17;;;2.97;;
8139;SDS011;4111;50.972;7.072;2023-08-06T14:20:44;3.80;;;2.40;;
8139;SDS011;4111;50.972;7.072;2023-08-06T14:23:11;5.37;;;2.60;;
8139;SDS011;4111;50.972;7.072;2023-08-06T14:25:38;5.03;;;2.70;;
8139;SDS011;4111;50.972;7.072;2023-08-06T14:28:05;3.63;;;3.10;;
8139;SDS011;4111;50.972;7.072;2023-08-06T14:30:33;4.00;;;2.80;;
8139;SDS011;4111;50.972;7.072;2023-08-06T14:33:00;4.90;;;3.17;;
8139;SDS011;4111;50.972;7.072;2023-08-06T14:35:46;4.40;;;2.80;;
8139;SDS011;4111;50.972;7.072;2023-08-06T14:38:13;4.57;;;2.60;;
8139;SDS011;4111;50.972;7.072;2023-08-06T14:40:39;3.63;;;1.93;;
8139;SDS011;4111;50.972;7.072;2023-08-06T14:43:06;3.53;;;2.10;;
8139;SDS011;4111;50.972;7.072;2023-08-06T14:45:33;4.83;;;2.50;;
8139;SDS011;4111;50.972;7.072;2023-08-06T14:48:00;4.30;;;2.23;;
8139;SDS011;4111;50.972;7.072;2023-08-06T14:50:26;5.30;;;2.27;;
8139;SDS011;4111;50.972;7.072;2023-08-06T14:52:52;4.17;;;2.00;;
8139;SDS011;4111;50.972;7.072;2023-08-06T14:55:28;6.63;;;2.77;;
8139;SDS011;4111;50.972;7.072;2023-08-06T14:57:55;6.40;;;2.20;;
8139;SDS011;4111;50.972;7.072;2023-08-06T15:00:21;3.77;;;2.30;;
8139;SDS011;4111;50.972;7.072;2023-08-06T15:02:48;4.50;;;2.23;;
8139;SDS011;4111;50.972;7.072;2023-08-06T15:05:14;6.90;;;2.27;;
8139;SDS011;4111;50.972;7.072;2023-08-06T15:07:41;4.50;;;1.93;;
8139;SDS011;4111;50.972;7.072;2023-08-06T15:10:07;6.70;;;2.47;;
8139;SDS011;4111;50.972;7.072;2023-08-06T15:12:52;4.30;;;2.07;;
8139;SDS011;4111;50.972;7.072;2023-08-06T15:15:19;4.40;;;2.20;;
8139;SDS011;4111;50.972;7.072;2023-08-06T15:17:45;4.47;;;2.13;;
8139;SDS011;4111;50.972;7.072;2023-08-06T15:20:12;4.77;;;1.67;;
8139;SDS011;4111;50.972;7.072;2023-08-06T15:22:38;5.07;;;1.90;;
8139;SDS011;4111;50.972;7.072;2023-08-06T15:25:05;4.87;;;2.37;;
8139;SDS011;4111;50.972;7.072;2023-08-06T15:27:31;3.60;;;1.87;;
8139;SDS011;4111;50.972;7.072;2023-08-06T15:29:59;4.80;;;2.50;;
8139;SDS011;4111;50.972;7.072;2023-08-06T15:32:26;2.60;;;1.70;;